| time (UTC) | temp F | wind direction | speed MPH | gust MPH | rain 1hr in | rain 24hr in | rain mn in | humidity % | barometer mb |
| 20260510224458 | 64 | 67 | 7.0 | 13.0 | 0.00 | 0.67 | 0.67 | 88 | 1016.0 |
| 20260510223958 | 65 | 74 | 9.0 | 13.0 | 0.00 | 0.67 | 0.67 | 88 | 1016.0 |
| 20260510223459 | 65 | 70 | 5.0 | 9.0 | 0.00 | 0.67 | 0.67 | 88 | 1016.4 |
| 20260510222958 | 65 | 54 | 5.0 | 9.0 | 0.01 | 0.67 | 0.67 | 88 | 1016.4 |
| 20260510222458 | 65 | 71 | 3.0 | 10.0 | 0.04 | 0.67 | 0.67 | 88 | 1016.5 |
| 20260510221958 | 65 | 114 | 2.0 | 12.0 | 0.09 | 0.67 | 0.67 | 88 | 1016.6 |
| 20260510221458 | 65 | 79 | 6.0 | 12.0 | 0.09 | 0.67 | 0.67 | 88 | 1016.2 |
| 20260510220959 | 65 | 85 | 5.0 | 12.0 | 0.09 | 0.67 | 0.67 | 88 | 1016.4 |
| 20260510215458 | 65 | 85 | 7.0 | 14.0 | 0.09 | 0.67 | 0.67 | 88 | 1015.7 |
| 20260510214959 | 65 | 89 | 6.0 | 14.0 | 0.09 | 0.67 | 0.67 | 88 | 1015.8 |
| 20260510214459 | 65 | 80 | 7.0 | 13.0 | 0.09 | 0.67 | 0.67 | 88 | 1015.8 |
| 20260510213958 | 65 | 81 | 7.0 | 13.0 | 0.09 | 0.67 | 0.67 | 88 | 1015.7 |
| 20260510213459 | 65 | 86 | 8.0 | 14.0 | 0.10 | 0.67 | 0.67 | 88 | 1016.0 |
| 20260510212459 | 65 | 74 | 9.0 | 15.0 | 0.15 | 0.63 | 0.63 | 88 | 1016.2 |
| 20260510211959 | 65 | 51 | 4.0 | 15.0 | 0.16 | 0.58 | 0.58 | 88 | 1017.0 |
| 20260510211500 | 65 | 45 | 7.0 | 15.0 | 0.16 | 0.58 | 0.58 | 88 | 1017.1 |
| 20260510210959 | 65 | 67 | 6.0 | 15.0 | 0.16 | 0.58 | 0.58 | 88 | 1016.8 |
| 20260510210459 | 65 | 72 | 11.0 | 15.0 | 0.16 | 0.58 | 0.58 | 87 | 1016.7 |
| 20260510205459 | 65 | 67 | 11.0 | 20.0 | 0.16 | 0.58 | 0.58 | 87 | 1016.8 |
| 20260510205000 | 65 | 29 | 12.0 | 20.0 | 0.16 | 0.58 | 0.58 | 87 | 1017.1 |
| 20260510204458 | 66 | 38 | 10.0 | 20.0 | 0.16 | 0.58 | 0.58 | 87 | 1017.6 |
| 20260510203959 | 66 | 46 | 7.0 | 20.0 | 0.16 | 0.58 | 0.58 | 87 | 1017.4 |
| 20260510203459 | 66 | 31 | 13.0 | 20.0 | 0.15 | 0.57 | 0.57 | 86 | 1017.0 |
| 20260510202959 | 66 | 43 | 11.0 | 21.0 | 0.12 | 0.54 | 0.54 | 86 | 1017.4 |
| 20260510202459 | 67 | 5 | 14.0 | 21.0 | 0.06 | 0.48 | 0.48 | 85 | 1017.5 |
| 20260510202000 | 68 | 28 | 13.0 | 20.0 | 0.00 | 0.42 | 0.42 | 84 | 1017.2 |
| 20260510201459 | 68 | 27 | 10.0 | 14.0 | 0.00 | 0.42 | 0.42 | 83 | 1017.6 |
| 20260510200959 | 68 | 14 | 10.0 | 14.0 | 0.00 | 0.42 | 0.42 | 83 | 1017.3 |
| 20260510200459 | 68 | 31 | 7.0 | 13.0 | 0.00 | 0.42 | 0.42 | 83 | 1017.0 |
| 20260510195959 | 68 | 45 | 7.0 | 15.0 | 0.00 | 0.42 | 0.42 | 83 | 1016.7 |
| 20260510195459 | 68 | 57 | 10.0 | 15.0 | 0.00 | 0.42 | 0.42 | 83 | 1016.6 |
| 20260510194959 | 68 | 47 | 5.0 | 14.0 | 0.00 | 0.42 | 0.42 | 83 | 1016.6 |
| 20260510194459 | 68 | 42 | 9.0 | 14.0 | 0.00 | 0.42 | 0.42 | 83 | 1016.6 |
| 20260510194003 | 68 | 51 | 9.0 | 14.0 | 0.00 | 0.42 | 0.42 | 83 | 1016.6 |
| 20260510193459 | 69 | 44 | 7.0 | 13.0 | 0.00 | 0.42 | 0.42 | 84 | 1016.4 |
| 20260510193000 | 68 | 56 | 7.0 | 13.0 | 0.00 | 0.42 | 0.42 | 84 | 1016.4 |
| 20260510192459 | 68 | 35 | 9.0 | 15.0 | 0.00 | 0.42 | 0.42 | 84 | 1016.5 |
| 20260510192000 | 68 | 63 | 9.0 | 17.0 | 0.00 | 0.42 | 0.42 | 83 | 1016.5 |
| 20260510191500 | 68 | 40 | 8.0 | 17.0 | 0.00 | 0.42 | 0.42 | 83 | 1016.6 |
| 20260510190959 | 68 | 45 | 8.0 | 17.0 | 0.00 | 0.42 | 0.42 | 83 | 1016.5 |
| 20260510190500 | 68 | 39 | 12.0 | 16.0 | 0.00 | 0.42 | 0.42 | 83 | 1016.3 |
| 20260510185959 | 68 | 26 | 11.0 | 15.0 | 0.00 | 0.42 | 0.42 | 83 | 1016.4 |
| 20260510185500 | 68 | 32 | 10.0 | 18.0 | 0.00 | 0.42 | 0.42 | 83 | 1016.4 |
| 20260510185000 | 68 | 24 | 10.0 | 18.0 | 0.00 | 0.42 | 0.42 | 82 | 1016.4 |
| 20260510184459 | 69 | 37 | 12.0 | 18.0 | 0.00 | 0.42 | 0.42 | 82 | 1016.2 |
| 20260510184000 | 69 | 23 | 10.0 | 15.0 | 0.00 | 0.42 | 0.42 | 81 | 1016.1 |
| 20260510183500 | 71 | 17 | 9.0 | 13.0 | 0.00 | 0.42 | 0.42 | 80 | 1016.0 |
| 20260510182959 | 70 | 59 | 6.0 | 12.0 | 0.00 | 0.42 | 0.42 | 80 | 1015.7 |
| 20260510182500 | 71 | 79 | 7.0 | 12.0 | 0.00 | 0.42 | 0.42 | 81 | 1015.6 |
| 20260510182000 | 70 | 79 | 6.0 | 12.0 | 0.00 | 0.42 | 0.42 | 82 | 1015.4 |
| 20260510181500 | 70 | 77 | 3.0 | 12.0 | 0.00 | 0.42 | 0.42 | 84 | 1015.3 |
| 20260510180959 | 69 | 89 | 5.0 | 13.0 | 0.00 | 0.42 | 0.42 | 85 | 1015.2 |
| 20260510180000 | 69 | 76 | 4.0 | 12.0 | 0.00 | 0.42 | 0.42 | 87 | 1015.0 |
| 20260510175500 | 68 | 83 | 7.0 | 13.0 | 0.00 | 0.42 | 0.42 | 87 | 1015.1 |
| 20260510174000 | 66 | 94 | 5.0 | 12.0 | 0.00 | 0.42 | 0.42 | 88 | 1015.2 |
| 20260510173500 | 67 | 98 | 5.0 | 12.0 | 0.00 | 0.42 | 0.42 | 88 | 1015.1 |
| 20260510173000 | 66 | 86 | 7.0 | 12.0 | 0.01 | 0.42 | 0.42 | 89 | 1015.3 |
| 20260510172500 | 66 | 84 | 5.0 | 12.0 | 0.10 | 0.42 | 0.42 | 89 | 1015.3 |
| 20260510172000 | 65 | 64 | 6.0 | 12.0 | 0.16 | 0.42 | 0.42 | 89 | 1015.3 |
| 20260510171500 | 64 | 78 | 6.0 | 12.0 | 0.31 | 0.42 | 0.42 | 89 | 1015.4 |
| 20260510171000 | 64 | 84 | 4.0 | 13.0 | 0.42 | 0.42 | 0.42 | 88 | 1015.6 |
| 20260510170000 | 63 | 86 | 6.0 | 15.0 | 0.42 | 0.42 | 0.42 | 88 | 1015.3 |
| 20260510165500 | 63 | 84 | 7.0 | 15.0 | 0.42 | 0.42 | 0.42 | 88 | 1015.3 |
| 20260510165001 | 63 | 80 | 9.0 | 15.0 | 0.42 | 0.42 | 0.42 | 88 | 1015.2 |
| 20260510164500 | 63 | 81 | 9.0 | 15.0 | 0.42 | 0.42 | 0.42 | 88 | 1015.5 |
| 20260510163501 | 63 | 73 | 9.0 | 18.0 | 0.42 | 0.42 | 0.42 | 88 | 1015.9 |
| 20260510163001 | 63 | 72 | 13.0 | 18.0 | 0.40 | 0.40 | 0.40 | 87 | 1015.6 |
| 20260510162501 | 64 | 60 | 12.0 | 20.0 | 0.31 | 0.31 | 0.31 | 87 | 1016.0 |
| 20260510162001 | 64 | 45 | 13.0 | 29.0 | 0.25 | 0.25 | 0.25 | 86 | 1016.5 |
| 20260510161000 | 65 | 33 | 16.0 | 30.0 | 0.00 | 0.00 | 0.00 | 84 | 1016.2 |
| 20260510160501 | 65 | 29 | 20.0 | 30.0 | 0.00 | 0.00 | 0.00 | 83 | 1015.4 |
| 20260510160001 | 66 | 41 | 15.0 | 36.0 | 0.00 | 0.00 | 0.00 | 82 | 1015.4 |
| 20260510155501 | 66 | 45 | 22.0 | 36.0 | 0.00 | 0.00 | 0.00 | 81 | 1015.1 |
| 20260510154500 | 68 | 14 | 14.0 | 28.0 | 0.00 | 0.00 | 0.00 | 75 | 1014.9 |
| 20260510154001 | 72 | 7 | 16.0 | 28.0 | 0.00 | 0.00 | 0.00 | 70 | 1015.0 |
| 20260510153501 | 74 | 22 | 3.0 | 12.0 | 0.00 | 0.00 | 0.00 | 70 | 1014.5 |
| 20260510153001 | 74 | 171 | 6.0 | 16.0 | 0.00 | 0.00 | 0.00 | 70 | 1013.2 |
| 20260510152501 | 74 | 181 | 9.0 | 20.0 | 0.00 | 0.00 | 0.00 | 71 | 1012.6 |
| 20260510152001 | 74 | 167 | 9.0 | 21.0 | 0.00 | 0.00 | 0.00 | 72 | 1012.1 |
| 20260510151500 | 73 | 160 | 14.0 | 21.0 | 0.00 | 0.00 | 0.00 | 72 | 1011.6 |
| 20260510151001 | 73 | 193 | 13.0 | 20.0 | 0.00 | 0.00 | 0.00 | 74 | 1011.4 |
| 20260510150500 | 73 | 188 | 13.0 | 20.0 | 0.00 | 0.00 | 0.00 | 75 | 1011.5 |
| 20260510150001 | 72 | 174 | 13.0 | 20.0 | 0.00 | 0.00 | 0.00 | 75 | 1011.6 |
| 20260510145001 | 72 | 163 | 12.0 | 20.0 | 0.00 | 0.00 | 0.00 | 76 | 1011.8 |
| 20260510144501 | 72 | 180 | 13.0 | 20.0 | 0.00 | 0.00 | 0.00 | 76 | 1011.7 |
| 20260510144001 | 72 | 191 | 12.0 | 20.0 | 0.00 | 0.00 | 0.00 | 77 | 1011.7 |
| 20260510143501 | 72 | 175 | 11.0 | 20.0 | 0.00 | 0.00 | 0.00 | 76 | 1011.9 |
| 20260510143001 | 72 | 184 | 9.0 | 24.0 | 0.00 | 0.00 | 0.00 | 76 | 1011.8 |
| 20260510142501 | 72 | 172 | 13.0 | 24.0 | 0.00 | 0.00 | 0.00 | 76 | 1011.8 |
| 20260510142002 | 71 | 161 | 16.0 | 24.0 | 0.00 | 0.00 | 0.00 | 75 | 1011.8 |
| 20260510141501 | 71 | 162 | 12.0 | 16.0 | 0.00 | 0.00 | 0.00 | 76 | 1012.1 |
| 20260510141002 | 71 | 150 | 11.0 | 16.0 | 0.00 | 0.00 | 0.00 | 76 | 1012.2 |
| 20260510140501 | 71 | 147 | 11.0 | 18.0 | 0.00 | 0.00 | 0.00 | 77 | 1012.1 |
| 20260510135501 | 70 | 163 | 10.0 | 16.0 | 0.00 | 0.00 | 0.00 | 79 | 1012.2 |
| 20260510135001 | 70 | 157 | 10.0 | 18.0 | 0.00 | 0.00 | 0.00 | 79 | 1012.3 |
| 20260510133502 | 69 | 154 | 8.0 | 13.0 | 0.00 | 0.00 | 0.00 | 82 | 1012.5 |
| 20260510133001 | 68 | 155 | 9.0 | 13.0 | 0.00 | 0.00 | 0.00 | 83 | 1012.6 |
| 20260510132502 | 68 | 155 | 7.0 | 13.0 | 0.00 | 0.00 | 0.00 | 83 | 1012.5 |
| 20260510131002 | 68 | 139 | 7.0 | 12.0 | 0.00 | 0.00 | 0.00 | 83 | 1012.9 |
| 20260510130501 | 68 | 128 | 6.0 | 12.0 | 0.00 | 0.00 | 0.00 | 83 | 1012.8 |
| 20260510130001 | 67 | 129 | 5.0 | 8.0 | 0.00 | 0.00 | 0.00 | 83 | 1012.9 |
| 20260510125502 | 67 | 156 | 6.0 | 12.0 | 0.00 | 0.00 | 0.00 | 83 | 1012.9 |
| 20260510125002 | 67 | 156 | 4.0 | 12.0 | 0.00 | 0.00 | 0.00 | 83 | 1012.7 |
| 20260510124501 | 68 | 157 | 6.0 | 12.0 | 0.00 | 0.00 | 0.00 | 83 | 1012.5 |
| 20260510124002 | 67 | 139 | 7.0 | 12.0 | 0.00 | 0.00 | 0.00 | 83 | 1012.5 |
| 20260510123502 | 67 | 133 | 3.0 | 12.0 | 0.00 | 0.00 | 0.00 | 83 | 1012.5 |
| 20260510123002 | 67 | 156 | 7.0 | 12.0 | 0.00 | 0.00 | 0.00 | 83 | 1012.5 |
| 20260510122502 | 67 | 146 | 6.0 | 9.0 | 0.00 | 0.00 | 0.00 | 83 | 1012.4 |
| 20260510122002 | 67 | 126 | 3.0 | 7.0 | 0.00 | 0.00 | 0.00 | 83 | 1012.3 |
| 20260510121502 | 67 | 132 | 2.0 | 9.0 | 0.00 | 0.00 | 0.00 | 83 | 1012.3 |
| 20260510121003 | 67 | 129 | 3.0 | 9.0 | 0.00 | 0.00 | 0.00 | 83 | 1012.3 |
| 20260510120502 | 67 | 155 | 5.0 | 9.0 | 0.00 | 0.00 | 0.00 | 82 | 1012.3 |
| 20260510120002 | 67 | 138 | 5.0 | 9.0 | 0.00 | 0.00 | 0.00 | 82 | 1012.2 |
| 20260510115502 | 67 | 116 | 3.0 | 7.0 | 0.00 | 0.00 | 0.00 | 83 | 1012.2 |
| 20260510115002 | 67 | 110 | 1.0 | 5.0 | 0.00 | 0.00 | 0.00 | 83 | 1012.3 |
| 20260510114502 | 67 | 115 | 2.0 | 8.0 | 0.00 | 0.00 | 0.00 | 83 | 1012.2 |
| 20260510113002 | 66 | 142 | 5.0 | 10.0 | 0.00 | 0.00 | 0.00 | 83 | 1011.9 |
| 20260510112503 | 66 | 149 | 5.0 | 12.0 | 0.00 | 0.00 | 0.00 | 83 | 1011.9 |
| 20260510111503 | 66 | 131 | 5.0 | 12.0 | 0.00 | 0.00 | 0.00 | 82 | 1011.6 |
| 20260510110503 | 67 | 128 | 4.0 | 9.0 | 0.00 | 0.00 | 0.00 | 82 | 1011.6 |
| 20260510105503 | 67 | 126 | 6.0 | 9.0 | 0.00 | 0.00 | 0.00 | 82 | 1011.9 |
| 20260510105002 | 67 | 117 | 3.0 | 8.0 | 0.00 | 0.00 | 0.00 | 82 | 1011.8 |
| 20260510104502 | 67 | 142 | 5.0 | 9.0 | 0.00 | 0.00 | 0.00 | 82 | 1011.8 |
| 20260510104002 | 67 | 113 | 3.0 | 12.0 | 0.00 | 0.00 | 0.00 | 82 | 1011.9 |
| 20260510103503 | 67 | 111 | 5.0 | 12.0 | 0.00 | 0.00 | 0.00 | 82 | 1011.9 |
| 20260510103003 | 67 | 103 | 5.0 | 12.0 | 0.00 | 0.00 | 0.00 | 82 | 1011.7 |
| 20260510102003 | 67 | 113 | 8.0 | 13.0 | 0.00 | 0.00 | 0.00 | 83 | 1011.6 |
| 20260510101503 | 66 | 92 | 4.0 | 12.0 | 0.00 | 0.00 | 0.00 | 83 | 1011.6 |
| 20260510101002 | 66 | 120 | 3.0 | 12.0 | 0.00 | 0.00 | 0.00 | 84 | 1011.4 |
| 20260510100502 | 66 | 107 | 3.0 | 12.0 | 0.00 | 0.00 | 0.00 | 84 | 1011.5 |
| 20260510100003 | 66 | 105 | 5.0 | 12.0 | 0.00 | 0.00 | 0.00 | 84 | 1011.2 |
| 20260510095502 | 66 | 106 | 6.0 | 12.0 | 0.00 | 0.00 | 0.00 | 84 | 1011.1 |
| 20260510095003 | 66 | 108 | 6.0 | 12.0 | 0.00 | 0.00 | 0.00 | 84 | 1011.2 |
| 20260510094503 | 66 | 92 | 5.0 | 12.0 | 0.00 | 0.00 | 0.00 | 84 | 1011.5 |
| 20260510094003 | 66 | 103 | 5.0 | 12.0 | 0.00 | 0.00 | 0.00 | 84 | 1011.7 |
| 20260510093003 | 65 | 95 | 5.0 | 12.0 | 0.00 | 0.00 | 0.00 | 83 | 1011.8 |
| 20260510092503 | 65 | 92 | 7.0 | 13.0 | 0.00 | 0.00 | 0.00 | 83 | 1011.9 |
| 20260510092003 | 65 | 73 | 6.0 | 18.0 | 0.00 | 0.00 | 0.00 | 83 | 1012.0 |
| 20260510091503 | 65 | 59 | 8.0 | 18.0 | 0.00 | 0.00 | 0.00 | 82 | 1011.8 |
| 20260510091004 | 66 | 80 | 12.0 | 18.0 | 0.00 | 0.00 | 0.00 | 82 | 1011.7 |
| 20260510090503 | 66 | 79 | 9.0 | 22.0 | 0.00 | 0.00 | 0.00 | 82 | 1011.6 |
| 20260510090004 | 67 | 81 | 11.0 | 22.0 | 0.00 | 0.00 | 0.00 | 80 | 1010.9 |
| 20260510085503 | 68 | 86 | 9.0 | 22.0 | 0.00 | 0.00 | 0.00 | 79 | 1010.9 |
| 20260510084003 | 71 | 75 | 13.0 | 22.0 | 0.00 | 0.00 | 0.00 | 77 | 1010.7 |
| 20260510083504 | 72 | 77 | 12.0 | 20.0 | 0.00 | 0.00 | 0.00 | 76 | 1010.7 |
| 20260510083004 | 72 | 67 | 13.0 | 38.0 | 0.00 | 0.00 | 0.00 | 76 | 1010.6 |
| 20260510082503 | 73 | 49 | 13.0 | 38.0 | 0.00 | 0.00 | 0.00 | 76 | 1010.9 |
| 20260510082004 | 72 | 65 | 25.0 | 38.0 | 0.00 | 0.00 | 0.00 | 76 | 1010.8 |
| 20260510081503 | 72 | 49 | 22.0 | 30.0 | 0.00 | 0.00 | 0.00 | 78 | 1011.4 |
| 20260510081004 | 71 | 1 | 13.0 | 23.0 | 0.00 | 0.00 | 0.00 | 79 | 1011.7 |
| 20260510080503 | 71 | 19 | 17.0 | 23.0 | 0.00 | 0.00 | 0.00 | 78 | 1011.7 |
| 20260510074503 | 72 | 47 | 12.0 | 26.0 | 0.00 | 0.00 | 0.00 | 80 | 1010.9 |
| 20260510074004 | 73 | 33 | 19.0 | 26.0 | 0.00 | 0.00 | 0.00 | 80 | 1011.0 |
| 20260510073503 | 74 | 49 | 13.0 | 23.0 | 0.00 | 0.00 | 0.00 | 82 | 1010.9 |
| 20260510073004 | 75 | 25 | 7.0 | 13.0 | 0.00 | 0.00 | 0.00 | 81 | 1010.4 |
| 20260510072503 | 76 | 51 | 5.0 | 9.0 | 0.00 | 0.00 | 0.00 | 80 | 1009.8 |
| 20260510072004 | 76 | 74 | 4.0 | 9.0 | 0.00 | 0.00 | 0.00 | 80 | 1009.5 |
| 20260510071504 | 76 | 80 | 5.0 | 12.0 | 0.00 | 0.00 | 0.00 | 80 | 1009.2 |
| 20260510071004 | 76 | 87 | 5.0 | 12.0 | 0.00 | 0.00 | 0.00 | 79 | 1009.1 |
| 20260510070004 | 76 | 84 | 3.0 | 12.0 | 0.00 | 0.00 | 0.00 | 79 | 1008.8 |
| 20260510065504 | 76 | 105 | 3.0 | 12.0 | 0.00 | 0.00 | 0.00 | 79 | 1008.5 |
| 20260510065004 | 76 | 103 | 5.0 | 13.0 | 0.00 | 0.00 | 0.00 | 78 | 1008.3 |
| 20260510064504 | 76 | 99 | 7.0 | 14.0 | 0.00 | 0.00 | 0.00 | 78 | 1008.3 |
| 20260510062504 | 77 | 92 | 11.0 | 20.0 | 0.00 | 0.00 | 0.00 | 76 | 1007.8 |
| 20260510061504 | 76 | 92 | 13.0 | 22.0 | 0.00 | 0.00 | 0.00 | 75 | 1008.5 |
| 20260510061004 | 76 | 102 | 12.0 | 23.0 | 0.00 | 0.00 | 0.00 | 74 | 1008.6 |
| 20260510060504 | 76 | 98 | 14.0 | 23.0 | 0.00 | 0.00 | 0.00 | 74 | 1009.1 |
| 20260510055404 | 76 | 31 | 15.0 | 23.0 | 0.00 | 0.00 | 0.00 | 75 | 1011.4 |
| 20260510054905 | 76 | 20 | 16.0 | 23.0 | 0.00 | 0.00 | 0.00 | 75 | 1011.5 |
| 20260510054405 | 75 | 18 | 18.0 | 23.0 | 0.00 | 0.00 | 0.00 | 77 | 1011.5 |
| 20260510053905 | 74 | 8 | 16.0 | 30.0 | 0.00 | 0.00 | 0.00 | 78 | 1011.0 |
| 20260510053404 | 74 | 23 | 15.0 | 30.0 | 0.00 | 0.00 | 0.00 | 77 | 1010.4 |
| 20260510052905 | 74 | 8 | 21.0 | 30.0 | 0.00 | 0.00 | 0.00 | 78 | 1010.5 |
| 20260510052405 | 74 | 351 | 14.0 | 25.0 | 0.00 | 0.00 | 0.00 | 78 | 1010.3 |
| 20260510051905 | 77 | 5 | 7.0 | 10.0 | 0.00 | 0.00 | 0.00 | 72 | 1009.0 |
| 20260510051404 | 77 | 78 | 2.0 | 5.0 | 0.00 | 0.00 | 0.00 | 73 | 1008.0 |
| 20260510045905 | 76 | 106 | 2.0 | 6.0 | 0.00 | 0.00 | 0.00 | 74 | 1007.4 |
| 20260510045405 | 76 | 103 | 3.0 | 6.0 | 0.00 | 0.00 | 0.00 | 75 | 1007.3 |
| 20260510044906 | 76 | 113 | 2.0 | 7.0 | 0.00 | 0.00 | 0.00 | 75 | 1007.1 |
| 20260510044405 | 75 | 114 | 2.0 | 7.0 | 0.00 | 0.00 | 0.00 | 75 | 1007.1 |
| 20260510043905 | 75 | 122 | 3.0 | 7.0 | 0.00 | 0.00 | 0.00 | 76 | 1007.0 |
| 20260510043405 | 75 | 121 | 3.0 | 5.0 | 0.00 | 0.00 | 0.00 | 76 | 1006.9 |
| 20260510042905 | 75 | 123 | 3.0 | 5.0 | 0.00 | 0.00 | 0.00 | 75 | 1006.8 |
| 20260510041906 | 75 | 130 | 2.0 | 6.0 | 0.00 | 0.00 | 0.00 | 76 | 1006.8 |
| 20260510041405 | 75 | 133 | 2.0 | 6.0 | 0.00 | 0.00 | 0.00 | 75 | 1006.9 |
| 20260510040905 | 75 | 134 | 3.0 | 6.0 | 0.00 | 0.00 | 0.00 | 75 | 1006.8 |
| 20260510040405 | 75 | 125 | 3.0 | 8.0 | 0.00 | 0.00 | 0.00 | 75 | 1006.8 |
| 20260510035406 | 74 | 125 | 3.0 | 6.0 | 0.00 | 0.00 | 0.00 | 75 | 1006.8 |
| 20260510034905 | 75 | 135 | 4.0 | 6.0 | 0.00 | 0.00 | 0.00 | 73 | 1006.8 |
| 20260510033905 | 76 | 136 | 2.0 | 8.0 | 0.00 | 0.00 | 0.00 | 70 | 1007.1 |
| 20260510033406 | 77 | 116 | 2.0 | 8.0 | 0.00 | 0.00 | 0.00 | 70 | 1007.0 |
| 20260510032906 | 77 | 115 | 3.0 | 8.0 | 0.00 | 0.00 | 0.00 | 69 | 1007.1 |
| 20260510032406 | 77 | 114 | 3.0 | 6.0 | 0.00 | 0.00 | 0.00 | 69 | 1007.1 |
| 20260510031906 | 77 | 109 | 2.0 | 6.0 | 0.00 | 0.00 | 0.00 | 68 | 1007.2 |
| 20260510030906 | 77 | 120 | 3.0 | 9.0 | 0.00 | 0.00 | 0.00 | 69 | 1007.2 |
| 20260510030406 | 77 | 112 | 3.0 | 9.0 | 0.00 | 0.00 | 0.00 | 68 | 1007.2 |
| 20260510025906 | 77 | 119 | 2.0 | 5.0 | 0.00 | 0.00 | 0.00 | 67 | 1007.3 |
| 20260510025406 | 77 | 128 | 2.0 | 7.0 | 0.00 | 0.00 | 0.00 | 67 | 1007.2 |
| 20260510024407 | 78 | 117 | 3.0 | 5.0 | 0.00 | 0.00 | 0.00 | 66 | 1007.1 |
| 20260510023906 | 78 | 115 | 2.0 | 6.0 | 0.00 | 0.00 | 0.00 | 65 | 1007.2 |
| 20260510023406 | 79 | 120 | 2.0 | 6.0 | 0.00 | 0.00 | 0.00 | 66 | 1007.2 |
| 20260510022906 | 79 | 115 | 3.0 | 6.0 | 0.00 | 0.00 | 0.00 | 66 | 1007.2 |
| 20260510021906 | 79 | 114 | 2.0 | 7.0 | 0.00 | 0.00 | 0.00 | 65 | 1007.1 |
| 20260510021406 | 80 | 98 | 3.0 | 7.0 | 0.00 | 0.00 | 0.00 | 65 | 1007.1 |
| 20260510020906 | 80 | 111 | 2.0 | 7.0 | 0.00 | 0.00 | 0.00 | 65 | 1007.1 |
| 20260510015906 | 81 | 105 | 2.0 | 6.0 | 0.00 | 0.00 | 0.00 | 64 | 1007.1 |
| 20260510015406 | 81 | 97 | 2.0 | 7.0 | 0.00 | 0.00 | 0.00 | 65 | 1007.0 |
| 20260510014906 | 81 | 70 | 1.0 | 7.0 | 0.00 | 0.00 | 0.00 | 65 | 1007.1 |
| 20260510014406 | 81 | 88 | 2.0 | 7.0 | 0.00 | 0.00 | 0.00 | 65 | 1007.1 |
| 20260510013906 | 81 | 96 | 3.0 | 8.0 | 0.00 | 0.00 | 0.00 | 65 | 1006.9 |
| 20260510013406 | 81 | 102 | 3.0 | 8.0 | 0.00 | 0.00 | 0.00 | 64 | 1006.8 |
| 20260510012907 | 82 | 98 | 4.0 | 8.0 | 0.00 | 0.00 | 0.00 | 64 | 1006.6 |
| 20260510012406 | 82 | 101 | 3.0 | 8.0 | 0.00 | 0.00 | 0.00 | 64 | 1006.7 |
| 20260510011906 | 82 | 107 | 2.0 | 8.0 | 0.00 | 0.00 | 0.00 | 64 | 1006.6 |
| 20260510011406 | 83 | 96 | 3.0 | 8.0 | 0.00 | 0.00 | 0.00 | 64 | 1006.6 |
| 20260510010906 | 83 | 92 | 2.0 | 7.0 | 0.00 | 0.00 | 0.00 | 64 | 1006.4 |
| 20260510010406 | 83 | 82 | 3.0 | 7.0 | 0.00 | 0.00 | 0.00 | 64 | 1006.3 |
| 20260510005906 | 84 | 102 | 3.0 | 7.0 | 0.00 | 0.00 | 0.00 | 63 | 1006.3 |
| 20260510004906 | 84 | 104 | 5.0 | 10.0 | 0.00 | 0.00 | 0.00 | 62 | 1006.2 |
| 20260510004407 | 84 | 100 | 5.0 | 10.0 | 0.00 | 0.00 | 0.00 | 62 | 1006.1 |
| 20260510003907 | 85 | 109 | 5.0 | 10.0 | 0.00 | 0.00 | 0.00 | 61 | 1006.2 |
| 20260510003406 | 85 | 96 | 5.0 | 10.0 | 0.00 | 0.00 | 0.00 | 61 | 1006.0 |
| 20260510002907 | 85 | 102 | 4.0 | 12.0 | 0.00 | 0.00 | 0.00 | 61 | 1006.0 |
| 20260510002406 | 85 | 100 | 4.0 | 12.0 | 0.00 | 0.00 | 0.00 | 61 | 1006.1 |
| 20260510001906 | 86 | 103 | 6.0 | 10.0 | 0.00 | 0.00 | 0.00 | 60 | 1006.1 |
| 20260510001406 | 86 | 101 | 5.0 | 10.0 | 0.00 | 0.00 | 0.00 | 60 | 1006.1 |
| 20260510000906 | 86 | 96 | 3.0 | 10.0 | 0.00 | 0.00 | 0.00 | 60 | 1006.2 |
| 20260510000407 | 87 | 110 | 5.0 | 10.0 | 0.00 | 0.00 | 0.00 | 60 | 1006.1 |
| 20260509235907 | 87 | 104 | 4.0 | 10.0 | 0.00 | 0.00 | 0.00 | 60 | 1006.1 |
| 20260509235406 | 87 | 103 | 5.0 | 10.0 | 0.00 | 0.00 | 0.00 | 59 | 1006.2 |
| 20260509234906 | 87 | 105 | 6.0 | 12.0 | 0.00 | 0.00 | 0.00 | 58 | 1006.2 |
| 20260509234407 | 87 | 95 | 6.0 | 12.0 | 0.00 | 0.00 | 0.00 | 58 | 1006.3 |
| 20260509233907 | 88 | 96 | 8.0 | 12.0 | 0.00 | 0.00 | 0.00 | 56 | 1006.2 |
| 20260509233407 | 88 | 98 | 5.0 | 12.0 | 0.00 | 0.00 | 0.00 | 56 | 1006.3 |
| 20260509232907 | 89 | 100 | 7.0 | 12.0 | 0.00 | 0.00 | 0.00 | 55 | 1006.3 |
| 20260509232406 | 89 | 89 | 6.0 | 10.0 | 0.00 | 0.00 | 0.00 | 53 | 1006.3 |
| 20260509231907 | 89 | 86 | 5.0 | 10.0 | 0.00 | 0.00 | 0.00 | 53 | 1006.3 |
| 20260509231407 | 90 | 83 | 6.0 | 10.0 | 0.00 | 0.00 | 0.00 | 52 | 1006.4 |
| 20260509230907 | 91 | 93 | 7.0 | 10.0 | 0.00 | 0.00 | 0.00 | 50 | 1006.4 |
| 20260509230407 | 91 | 86 | 3.0 | 9.0 | 0.00 | 0.00 | 0.00 | 46 | 1006.3 |
| 20260509225907 | 92 | 73 | 4.0 | 8.0 | 0.00 | 0.00 | 0.00 | 44 | 1006.4 |
| 20260509225407 | 92 | 81 | 1.0 | 7.0 | 0.00 | 0.00 | 0.00 | 46 | 1006.4 |
| 20260509224907 | 91 | 83 | 2.0 | 7.0 | 0.00 | 0.00 | 0.00 | 44 | 1006.4 |